Time;durP1;ratioP1;P1;durP2;ratioP2;P2;SDS_P1;SDS_P2;PMS_P1;PMS_P2;Temp;Humidity;BMP_temperature;BMP_pressure;BME280_temperature;BME280_humidity;BME280_pressure;Samples;Min_cycle;Max_cycle;Signal;HPM_P1;HPM_P2
2023/04/28 00:00:19;;;;;;;20.50;6.97;;;6.90;99.90;;;;;;5075191;28;20039;-78
2023/04/28 00:02:47;;;;;;;16.08;7.00;;;6.90;99.90;;;;;;5076547;28;20107;-78
2023/04/28 00:05:13;;;;;;;13.57;6.22;;;6.80;99.90;;;;;;5076458;28;20033;-79
2023/04/28 00:07:38;;;;;;;16.75;7.22;;;6.90;99.90;;;;;;5076859;28;20025;-77
2023/04/28 00:10:05;;;;;;;13.23;6.50;;;6.90;99.90;;;;;;5076109;28;20108;-78
2023/04/28 00:12:30;;;;;;;15.35;6.82;;;6.90;99.90;;;;;;5075705;28;20033;-78
2023/04/28 00:14:56;;;;;;;19.83;7.60;;;6.90;99.90;;;;;;5075208;28;20409;-77
2023/04/28 00:17:22;;;;;;;21.17;8.85;;;6.90;99.90;;;;;;5075875;28;20025;-77
2023/04/28 00:19:49;;;;;;;33.47;10.50;;;6.80;99.90;;;;;;5073855;28;20454;-77
2023/04/28 00:22:15;;;;;;;50.33;17.42;;;6.80;99.90;;;;;;5075075;28;20161;-78
2023/04/28 00:24:40;;;;;;;48.78;16.33;;;6.70;99.90;;;;;;5074345;28;20099;-78
2023/04/28 00:27:06;;;;;;;53.30;15.38;;;6.70;99.90;;;;;;5073511;28;20028;-78
2023/04/28 00:29:32;;;;;;;30.05;10.98;;;6.80;99.90;;;;;;5075614;28;20032;-78
2023/04/28 00:31:58;;;;;;;24.23;9.27;;;6.70;99.90;;;;;;5074792;28;20512;-78
2023/04/28 00:34:24;;;;;;;25.85;8.73;;;6.70;99.90;;;;;;5075392;28;20036;-78
2023/04/28 00:36:49;;;;;;;22.25;8.13;;;6.70;99.90;;;;;;5074708;28;20356;-78
2023/04/28 00:39:17;;;;;;;16.48;6.97;;;6.70;99.90;;;;;;5073743;28;20027;-78
2023/04/28 00:41:43;;;;;;;17.52;6.97;;;6.60;99.90;;;;;;5074840;28;20040;-77
2023/04/28 00:44:08;;;;;;;17.55;6.35;;;6.50;99.90;;;;;;5074850;28;20061;-78
2023/04/28 00:46:35;;;;;;;44.10;10.93;;;6.50;99.90;;;;;;5073098;28;20443;-77
2023/04/28 00:49:02;;;;;;;28.33;9.32;;;6.50;99.90;;;;;;5073473;28;20473;-77
2023/04/28 00:51:28;;;;;;;26.05;9.05;;;6.50;99.90;;;;;;5074638;28;20090;-77
2023/04/28 00:53:54;;;;;;;22.02;8.52;;;6.50;99.90;;;;;;5074158;28;20459;-78
2023/04/28 00:56:20;;;;;;;18.75;7.97;;;6.50;99.90;;;;;;5073458;28;20025;-77
2023/04/28 00:58:46;;;;;;;22.65;7.53;;;6.50;99.90;;;;;;5074483;28;20371;-78
2023/04/28 01:01:13;;;;;;;30.00;9.38;;;6.60;99.90;;;;;;5074617;28;20447;-79
2023/04/28 01:03:40;;;;;;;20.70;9.45;;;6.50;99.90;;;;;;5072213;28;20071;-77
2023/04/28 01:06:07;;;;;;;42.83;13.63;;;6.50;99.90;;;;;;5074593;28;20031;-78
2023/04/28 01:08:35;;;;;;;28.45;12.38;;;6.40;99.90;;;;;;5073983;28;20017;-77
2023/04/28 01:11:01;;;;;;;37.28;11.77;;;6.50;99.90;;;;;;5074517;28;20139;-78
2023/04/28 01:13:27;;;;;;;29.50;11.00;;;6.50;99.90;;;;;;5073871;28;20108;-78
2023/04/28 01:15:55;;;;;;;49.03;16.40;;;6.50;99.90;;;;;;5074113;28;20507;-78
2023/04/28 01:18:21;;;;;;;77.97;22.90;;;6.50;99.90;;;;;;5073124;28;20463;-78
2023/04/28 01:20:47;;;;;;;62.00;17.95;;;6.50;99.90;;;;;;5073946;28;20017;-78
2023/04/28 01:23:16;;;;;;;40.97;13.27;;;6.40;99.90;;;;;;5072987;28;20036;-78
2023/04/28 01:25:43;;;;;;;29.15;10.43;;;6.40;99.90;;;;;;5074896;28;20031;-77
2023/04/28 01:28:09;;;;;;;48.05;17.05;;;6.40;99.90;;;;;;5074536;28;20032;-78
2023/04/28 01:30:35;;;;;;;36.80;14.60;;;6.40;99.90;;;;;;5073675;28;20025;-77
2023/04/28 01:33:02;;;;;;;40.88;11.85;;;6.40;99.90;;;;;;5074409;28;20029;-78
2023/04/28 01:35:28;;;;;;;29.55;10.52;;;6.40;99.90;;;;;;5073119;28;20056;-78
2023/04/28 01:37:54;;;;;;;23.33;11.02;;;6.40;99.90;;;;;;5074963;28;20052;-79
2023/04/28 01:40:19;;;;;;;32.70;10.88;;;6.40;99.90;;;;;;5074517;28;20108;-77
2023/04/28 01:42:45;;;;;;;25.40;10.90;;;6.30;99.90;;;;;;5074378;28;20044;-77
2023/04/28 01:45:11;;;;;;;34.70;12.48;;;6.30;99.90;;;;;;5074599;28;20050;-78
2023/04/28 01:47:37;;;;;;;27.70;11.38;;;6.30;99.90;;;;;;5073831;28;20024;-78
2023/04/28 01:50:04;;;;;;;15.57;8.50;;;6.10;99.90;;;;;;5072968;28;20363;-77
2023/04/28 01:52:30;;;;;;;20.13;6.90;;;5.80;99.90;;;;;;5074281;28;20052;-77
2023/04/28 01:54:55;;;;;;;14.50;6.38;;;5.80;99.90;;;;;;5073408;28;20059;-77
2023/04/28 01:57:21;;;;;;;15.10;7.35;;;5.70;99.90;;;;;;5073329;28;20062;-77
2023/04/28 01:59:47;;;;;;;15.35;6.05;;;5.70;99.90;;;;;;5073330;28;20028;-77
2023/04/28 02:02:13;;;;;;;16.58;5.18;;;5.70;99.90;;;;;;5073551;28;20063;-78
2023/04/28 02:04:39;;;;;;;12.00;5.35;;;5.60;99.90;;;;;;5072747;28;20035;-78
2023/04/28 02:07:05;;;;;;;16.33;6.05;;;5.50;99.90;;;;;;5073809;28;20055;-78
2023/04/28 02:09:32;;;;;;;18.60;5.40;;;5.50;99.90;;;;;;5072167;28;20020;-79
2023/04/28 02:12:01;;;;;;;13.05;6.47;;;5.50;99.90;;;;;;5072668;28;20028;-78
2023/04/28 02:14:31;;;;;;;13.75;5.97;;;5.50;99.90;;;;;;5069592;28;20036;-77
2023/04/28 02:16:57;;;;;;;11.23;5.45;;;5.50;99.90;;;;;;5072132;28;20028;-78
2023/04/28 02:19:23;;;;;;;10.38;5.30;;;5.50;99.90;;;;;;5072143;28;20021;-78
2023/04/28 02:21:49;;;;;;;18.35;6.05;;;5.50;99.90;;;;;;5072183;28;20023;-77
2023/04/28 02:24:15;;;;;;;13.82;5.57;;;5.40;99.90;;;;;;5072719;28;20028;-78
2023/04/28 02:26:41;;;;;;;17.77;4.70;;;5.40;99.90;;;;;;5073034;28;20048;-77
2023/04/28 02:29:06;;;;;;;14.50;6.32;;;5.40;99.90;;;;;;5073340;28;20021;-77
2023/04/28 02:31:33;;;;;;;17.38;7.20;;;5.30;99.90;;;;;;5072595;28;20477;-78
2023/04/28 02:33:59;;;;;;;12.25;5.90;;;5.40;99.90;;;;;;5073287;28;20111;-78
2023/04/28 02:36:26;;;;;;;14.98;6.38;;;5.40;99.90;;;;;;5073395;28;20020;-78
2023/04/28 02:38:52;;;;;;;15.48;5.53;;;5.30;99.90;;;;;;5071744;28;20021;-78
2023/04/28 02:41:18;;;;;;;23.02;7.78;;;5.30;99.90;;;;;;5072991;28;20362;-76
2023/04/28 02:43:44;;;;;;;15.27;6.75;;;5.20;99.90;;;;;;5073806;28;20498;-78
2023/04/28 02:46:10;;;;;;;10.48;5.93;;;5.20;99.90;;;;;;5073402;28;20028;-77
2023/04/28 02:48:36;;;;;;;11.77;5.18;;;5.20;99.90;;;;;;5074129;28;20030;-77
2023/04/28 02:51:02;;;;;;;14.20;4.63;;;5.20;99.90;;;;;;5073367;28;20060;-77
2023/04/28 02:53:28;;;;;;;14.88;5.90;;;5.20;99.90;;;;;;5071889;28;20436;-77
2023/04/28 02:55:54;;;;;;;16.00;6.72;;;5.20;99.90;;;;;;5071819;28;20495;-78
2023/04/28 02:58:20;;;;;;;12.20;6.88;;;5.10;99.90;;;;;;5074022;28;20090;-77
2023/04/28 03:00:46;;;;;;;14.90;6.18;;;5.10;99.90;;;;;;5076840;28;20055;-77
2023/04/28 03:03:12;;;;;;;14.10;6.47;;;5.00;99.90;;;;;;5077210;28;20028;-77
2023/04/28 03:05:37;;;;;;;37.95;10.70;;;5.00;99.90;;;;;;5077129;28;20059;-77
2023/04/28 03:08:04;;;;;;;58.25;21.50;;;4.90;99.90;;;;;;5075612;28;20048;-78
2023/04/28 03:10:30;;;;;;;22.90;9.45;;;4.90;99.90;;;;;;5076384;28;20431;-77
2023/04/28 03:12:55;;;;;;;12.60;6.07;;;4.90;99.90;;;;;;5076216;28;20067;-77
2023/04/28 03:15:21;;;;;;;15.27;6.88;;;4.90;99.90;;;;;;5077196;28;20062;-77
2023/04/28 03:17:47;;;;;;;23.08;9.27;;;4.80;99.90;;;;;;5076966;28;20024;-78
2023/04/28 03:20:13;;;;;;;21.80;9.57;;;4.90;99.90;;;;;;5076298;28;20433;-78
2023/04/28 03:22:38;;;;;;;25.83;11.43;;;4.80;99.90;;;;;;5075446;28;20025;-77
2023/04/28 03:25:04;;;;;;;23.42;8.43;;;4.80;99.90;;;;;;5076625;28;20066;-77
2023/04/28 03:27:30;;;;;;;16.88;7.32;;;4.80;99.90;;;;;;5076254;28;20075;-78
2023/04/28 03:29:56;;;;;;;21.45;6.97;;;4.70;99.90;;;;;;5076380;28;20025;-77
2023/04/28 03:32:22;;;;;;;18.77;7.68;;;4.70;99.90;;;;;;5075965;28;20025;-78
2023/04/28 03:34:47;;;;;;;10.90;4.72;;;4.70;99.90;;;;;;5076626;28;20032;-77
2023/04/28 03:37:13;;;;;;;18.60;6.82;;;4.80;99.90;;;;;;5076209;28;20020;-78
2023/04/28 03:39:39;;;;;;;23.33;7.55;;;4.80;99.90;;;;;;5076118;28;20020;-79
2023/04/28 03:42:05;;;;;;;12.93;6.22;;;4.80;99.90;;;;;;5074669;28;20032;-77
2023/04/28 03:44:30;;;;;;;13.90;4.38;;;4.70;99.90;;;;;;5076332;28;20039;-77
2023/04/28 03:46:56;;;;;;;10.18;4.70;;;4.70;99.90;;;;;;5075571;28;20016;-77
2023/04/28 03:49:22;;;;;;;16.45;5.63;;;4.70;99.90;;;;;;5074611;28;20028;-77
2023/04/28 03:51:50;;;;;;;15.20;6.13;;;4.70;99.90;;;;;;5075963;28;20450;-77
2023/04/28 03:54:15;;;;;;;20.05;6.57;;;4.60;99.90;;;;;;5074934;28;20029;-78
2023/04/28 03:56:41;;;;;;;17.00;6.82;;;4.70;99.90;;;;;;5075396;28;20029;-77
2023/04/28 03:59:10;;;;;;;15.32;5.63;;;4.70;99.90;;;;;;5075997;28;20371;-77
2023/04/28 04:01:36;;;;;;;9.48;5.05;;;4.70;99.90;;;;;;5074987;28;20439;-77
2023/04/28 04:04:02;;;;;;;17.35;5.85;;;4.80;99.90;;;;;;5075527;28;20092;-77
2023/04/28 04:06:28;;;;;;;15.50;6.40;;;4.70;99.90;;;;;;5076321;28;20067;-78
2023/04/28 04:08:54;;;;;;;12.80;4.90;;;4.80;99.90;;;;;;5075507;28;20028;-78
2023/04/28 04:11:20;;;;;;;8.48;3.75;;;4.80;99.90;;;;;;5075280;28;20028;-77
2023/04/28 04:13:46;;;;;;;14.23;5.20;;;4.80;99.90;;;;;;5076018;28;20039;-78
2023/04/28 04:16:14;;;;;;;12.85;4.65;;;4.80;99.90;;;;;;5075676;28;20036;-78
2023/04/28 04:18:40;;;;;;;8.95;4.38;;;4.80;99.90;;;;;;5076210;28;20028;-77
2023/04/28 04:21:06;;;;;;;19.70;5.30;;;4.90;99.90;;;;;;5075220;28;20110;-77
2023/04/28 04:23:32;;;;;;;9.65;4.55;;;4.90;99.90;;;;;;5074643;28;20163;-79
2023/04/28 04:25:57;;;;;;;12.75;5.00;;;4.80;99.90;;;;;;5074783;28;20028;-77
2023/04/28 04:28:23;;;;;;;10.27;5.28;;;4.90;99.90;;;;;;5074132;28;20025;-77
2023/04/28 04:30:49;;;;;;;17.95;6.63;;;5.00;99.90;;;;;;5075116;28;20032;-77
2023/04/28 04:33:15;;;;;;;13.73;6.20;;;5.00;99.90;;;;;;5074958;28;20033;-77
2023/04/28 04:35:41;;;;;;;10.45;5.88;;;5.10;99.90;;;;;;5075216;28;20023;-78
2023/04/28 04:38:07;;;;;;;13.18;5.95;;;5.20;99.90;;;;;;5074715;28;20020;-77
2023/04/28 04:40:33;;;;;;;11.65;5.78;;;5.30;99.90;;;;;;5074992;28;20502;-77
2023/04/28 04:42:59;;;;;;;22.52;7.15;;;5.40;99.90;;;;;;5074918;28;20048;-78
2023/04/28 04:45:26;;;;;;;16.30;7.32;;;5.50;99.90;;;;;;5072791;28;20031;-78
2023/04/28 04:47:52;;;;;;;15.43;6.15;;;5.60;99.90;;;;;;5074976;28;20447;-78
2023/04/28 04:50:18;;;;;;;15.00;6.40;;;5.70;99.90;;;;;;5075091;28;20023;-78
2023/04/28 04:52:43;;;;;;;15.93;5.82;;;5.90;99.90;;;;;;5074628;28;20028;-78
2023/04/28 04:55:10;;;;;;;16.15;5.95;;;6.00;99.90;;;;;;5075045;28;20029;-77
2023/04/28 04:57:36;;;;;;;13.57;5.15;;;6.20;99.90;;;;;;5063645;28;20455;-77
2023/04/28 05:00:03;;;;;;;15.50;5.88;;;6.30;99.90;;;;;;5075099;28;20029;-77
2023/04/28 05:02:29;;;;;;;15.25;6.38;;;6.40;99.90;;;;;;5075467;28;20028;-77
2023/04/28 05:04:55;;;;;;;10.50;4.57;;;6.60;99.90;;;;;;5075073;28;20344;-76
2023/04/28 05:07:20;;;;;;;14.50;4.80;;;6.60;99.90;;;;;;5075296;28;20104;-77
2023/04/28 05:09:46;;;;;;;13.13;6.32;;;6.70;99.90;;;;;;5073651;28;20030;-78
2023/04/28 05:12:12;;;;;;;16.05;4.68;;;6.80;99.90;;;;;;5073969;28;20123;-77
2023/04/28 05:14:38;;;;;;;11.77;7.75;;;6.90;99.90;;;;;;5075137;28;20443;-76
2023/04/28 05:17:03;;;;;;;9.65;4.78;;;7.10;99.90;;;;;;5074613;28;20020;-77
2023/04/28 05:19:29;;;;;;;11.63;8.02;;;7.20;99.90;;;;;;5074681;28;20095;-77
2023/04/28 05:21:55;;;;;;;31.83;28.58;;;7.20;99.90;;;;;;5073696;28;20386;-77
2023/04/28 05:24:22;;;;;;;18.35;8.40;;;7.30;99.90;;;;;;5073754;28;20112;-77
2023/04/28 05:26:53;;;;;;;33.95;15.40;;;7.50;99.90;;;;;;5074722;28;20048;-77
2023/04/28 05:29:22;;;;;;;49.55;22.05;;;7.60;99.90;;;;;;5074968;28;20451;-77
2023/04/28 05:31:47;;;;;;;28.63;12.57;;;7.80;99.90;;;;;;5074384;28;20036;-77
2023/04/28 05:34:13;;;;;;;15.88;7.63;;;8.00;99.90;;;;;;5074821;28;20025;-77
2023/04/28 05:36:39;;;;;;;14.77;6.28;;;8.10;99.90;;;;;;5075089;28;20020;-78
2023/04/28 05:39:05;;;;;;;13.38;5.95;;;8.30;99.90;;;;;;5074457;28;20024;-78
2023/04/28 05:41:31;;;;;;;19.60;7.47;;;8.40;99.90;;;;;;5074113;28;20040;-77
2023/04/28 05:43:57;;;;;;;12.60;6.30;;;8.50;99.90;;;;;;5074787;28;20093;-77
2023/04/28 05:46:23;;;;;;;9.63;5.85;;;8.60;99.90;;;;;;5074867;28;20036;-77
2023/04/28 05:48:48;;;;;;;14.10;6.35;;;8.70;99.90;;;;;;5073793;28;20020;-77
2023/04/28 05:51:14;;;;;;;18.38;7.45;;;8.80;99.90;;;;;;5074528;28;20105;-78
2023/04/28 05:53:40;;;;;;;12.23;6.35;;;9.00;99.90;;;;;;5074035;28;20025;-78
2023/04/28 05:56:06;;;;;;;10.23;6.13;;;9.10;99.90;;;;;;5072820;28;20020;-77
2023/04/28 05:58:33;;;;;;;14.85;7.28;;;9.20;99.90;;;;;;5074094;28;20033;-77
2023/04/28 06:00:59;;;;;;;20.67;7.85;;;9.30;99.90;;;;;;5072743;28;20020;-77
2023/04/28 06:03:24;;;;;;;14.82;6.78;;;9.40;99.90;;;;;;5071957;28;20030;-76
2023/04/28 06:05:50;;;;;;;16.23;7.20;;;9.60;99.90;;;;;;5074239;28;20031;-77
2023/04/28 06:08:16;;;;;;;24.90;8.15;;;9.70;99.90;;;;;;5073873;28;20086;-77
2023/04/28 06:10:42;;;;;;;13.40;6.88;;;9.90;99.90;;;;;;5074249;28;20020;-78
2023/04/28 06:13:08;;;;;;;21.98;8.90;;;10.00;99.90;;;;;;5073781;28;20029;-78
2023/04/28 06:15:34;;;;;;;16.92;7.22;;;10.10;98.90;;;;;;5073697;28;20112;-79
2023/04/28 06:18:00;;;;;;;14.73;6.28;;;10.20;99.00;;;;;;5072639;28;20107;-77
2023/04/28 06:20:26;;;;;;;14.25;7.00;;;10.30;98.30;;;;;;5074225;28;20430;-78
2023/04/28 06:22:52;;;;;;;20.50;8.40;;;10.50;98.20;;;;;;5072542;28;20028;-77
2023/04/28 06:25:18;;;;;;;16.30;7.63;;;10.60;97.70;;;;;;5073695;28;20028;-79
2023/04/28 06:27:44;;;;;;;13.32;6.30;;;10.80;95.60;;;;;;5073655;28;20035;-79
2023/04/28 06:30:21;;;;;;;12.82;4.60;;;10.90;94.80;;;;;;5073720;28;20021;-79
2023/04/28 06:32:46;;;;;;;14.48;5.78;;;11.00;94.50;;;;;;5071994;28;20033;-79
2023/04/28 06:35:13;;;;;;;11.10;5.78;;;11.20;94.30;;;;;;5074159;28;20036;-78
2023/04/28 06:37:39;;;;;;;10.52;6.07;;;11.40;94.90;;;;;;5073505;28;20508;-78
2023/04/28 06:40:05;;;;;;;21.40;7.43;;;11.50;92.60;;;;;;5072514;28;20025;-80
2023/04/28 06:42:31;;;;;;;16.38;6.53;;;11.70;92.50;;;;;;5072360;28;20052;-78
2023/04/28 06:44:58;;;;;;;9.13;5.55;;;11.90;91.70;;;;;;5073205;28;20116;-76
2023/04/28 06:47:24;;;;;;;11.00;5.13;;;12.10;90.80;;;;;;5073446;28;20424;-77
2023/04/28 06:49:50;;;;;;;11.20;5.55;;;12.30;88.20;;;;;;5072862;28;20020;-77
2023/04/28 06:52:16;;;;;;;9.30;3.95;;;12.50;87.00;;;;;;5072098;28;20032;-79
2023/04/28 06:54:42;;;;;;;11.55;3.20;;;12.80;82.90;;;;;;5073381;28;20371;-78
2023/04/28 06:57:08;;;;;;;6.32;3.28;;;12.90;80.00;;;;;;5072951;28;20029;-79
2023/04/28 06:59:34;;;;;;;9.88;2.92;;;13.10;76.60;;;;;;5072328;28;20031;-78
2023/04/28 07:02:00;;;;;;;9.35;2.78;;;13.30;75.60;;;;;;5071751;28;20503;-77
2023/04/28 07:04:26;;;;;;;7.15;2.72;;;13.60;74.10;;;;;;5070828;28;20099;-78
2023/04/28 07:06:52;;;;;;;10.20;2.92;;;13.80;75.80;;;;;;5073300;28;20025;-80
2023/04/28 07:09:18;;;;;;;9.15;2.80;;;13.90;64.50;;;;;;5073189;28;20021;-78
2023/04/28 07:11:44;;;;;;;5.18;2.30;;;14.10;64.90;;;;;;5073133;28;20049;-78
2023/04/28 07:14:10;;;;;;;7.05;2.58;;;14.20;64.30;;;;;;5073084;28;20451;-78
2023/04/28 07:16:35;;;;;;;3.20;1.48;;;14.40;61.50;;;;;;5073437;28;20044;-79
2023/04/28 07:19:01;;;;;;;6.25;2.85;;;14.50;57.50;;;;;;5071757;28;20021;-79
2023/04/28 07:21:27;;;;;;;7.82;2.20;;;14.60;57.20;;;;;;5072096;28;20115;-77
2023/04/28 07:23:56;;;;;;;4.93;2.20;;;14.70;55.30;;;;;;5072102;28;20115;-78
2023/04/28 07:26:22;;;;;;;4.82;2.10;;;14.70;55.80;;;;;;5072719;28;20093;-79
2023/04/28 07:28:48;;;;;;;6.85;1.60;;;14.90;57.20;;;;;;5073671;28;20502;-80
2023/04/28 07:31:14;;;;;;;3.55;1.27;;;15.00;55.80;;;;;;5073068;28;20063;-77
2023/04/28 07:33:40;;;;;;;7.32;1.88;;;14.90;54.40;;;;;;5071615;28;20040;-78
2023/04/28 07:36:06;;;;;;;6.35;1.67;;;15.30;58.30;;;;;;5073332;28;20020;-77
2023/04/28 07:38:35;;;;;;;7.22;2.08;;;15.40;54.80;;;;;;5072986;28;20029;-79
2023/04/28 07:41:02;;;;;;;6.07;1.80;;;15.50;54.00;;;;;;5071462;28;20031;-78
2023/04/28 07:43:28;;;;;;;7.68;1.98;;;15.70;54.70;;;;;;5071918;28;20128;-77
2023/04/28 07:45:54;;;;;;;9.10;1.95;;;15.90;53.10;;;;;;5074835;28;20029;-79
2023/04/28 07:48:20;;;;;;;6.57;1.50;;;16.10;52.70;;;;;;5075694;28;20024;-78
2023/04/28 07:50:46;;;;;;;8.02;2.75;;;16.30;53.30;;;;;;5076352;28;20059;-78
2023/04/28 07:53:12;;;;;;;17.88;5.80;;;16.40;52.60;;;;;;5075981;28;20111;-78
2023/04/28 07:55:40;;;;;;;14.05;3.55;;;16.50;48.40;;;;;;5075511;28;20021;-79
2023/04/28 07:58:07;;;;;;;11.73;3.88;;;16.70;52.60;;;;;;5075379;28;20029;-79
2023/04/28 08:00:32;;;;;;;3.58;1.73;;;16.70;48.40;;;;;;5075053;28;20052;-78
2023/04/28 08:02:58;;;;;;;6.18;1.73;;;16.70;46.30;;;;;;5076679;28;20068;-79
2023/04/28 08:05:24;;;;;;;4.18;2.13;;;16.80;47.80;;;;;;5076515;28;20029;-78
2023/04/28 08:07:50;;;;;;;5.03;1.60;;;16.80;47.60;;;;;;5074997;28;20066;-79
2023/04/28 08:10:16;;;;;;;8.25;2.47;;;16.70;46.30;;;;;;5076204;28;20032;-79
2023/04/28 08:12:43;;;;;;;11.45;3.42;;;16.90;45.70;;;;;;5075986;28;20024;-78
2023/04/28 08:15:10;;;;;;;8.07;2.97;;;17.00;46.00;;;;;;5074785;28;20032;-78
2023/04/28 08:17:36;;;;;;;7.55;2.65;;;17.20;45.80;;;;;;5075080;28;20036;-78
2023/04/28 08:20:02;;;;;;;40.13;10.15;;;17.30;44.20;;;;;;5075121;28;20079;-79
2023/04/28 08:22:27;;;;;;;20.30;5.15;;;17.10;43.20;;;;;;5076188;28;20041;-77
2023/04/28 08:24:53;;;;;;;19.70;5.90;;;17.20;43.50;;;;;;5075076;28;20029;-78
2023/04/28 08:27:19;;;;;;;5.15;1.65;;;17.40;43.60;;;;;;5075895;28;20529;-79
2023/04/28 08:29:45;;;;;;;3.28;1.65;;;17.50;42.60;;;;;;5073943;28;20398;-80
2023/04/28 08:32:11;;;;;;;15.65;4.80;;;17.50;42.70;;;;;;5075868;28;20119;-80
2023/04/28 08:34:36;;;;;;;7.88;3.15;;;17.70;43.40;;;;;;5075054;28;20444;-80
2023/04/28 08:37:03;;;;;;;11.70;4.00;;;17.60;41.10;;;;;;5075730;28;20017;-79
2023/04/28 08:39:30;;;;;;;9.68;2.80;;;17.70;41.60;;;;;;5074622;28;20378;-80
2023/04/28 08:41:56;;;;;;;14.60;4.70;;;17.80;41.20;;;;;;5075770;28;20045;-80
2023/04/28 08:44:22;;;;;;;7.35;3.00;;;17.80;38.50;;;;;;5074745;28;20470;-80
2023/04/28 08:46:49;;;;;;;5.40;1.85;;;17.90;40.60;;;;;;5075530;28;20020;-80
2023/04/28 08:49:17;;;;;;;11.57;2.33;;;17.90;39.70;;;;;;5075420;28;20020;-79
2023/04/28 08:51:54;;;;;;;7.78;2.95;;;17.80;37.00;;;;;;5074320;28;20470;-83
2023/04/28 08:54:22;;;;;;;13.15;3.25;;;17.80;38.80;;;;;;5075724;28;20028;-80
2023/04/28 08:56:48;;;;;;;10.75;4.05;;;17.90;40.40;;;;;;5075060;28;20012;-81
2023/04/28 08:59:15;;;;;;;3.60;1.30;;;18.20;42.00;;;;;;5074385;28;20111;-80
2023/04/28 09:01:41;;;;;;;6.78;2.97;;;18.20;37.80;;;;;;5075237;28;20032;-81
2023/04/28 09:04:06;;;;;;;5.38;2.10;;;18.40;38.30;;;;;;5073942;28;20078;-81
2023/04/28 09:06:35;;;;;;;5.10;1.55;;;18.40;39.50;;;;;;5073792;28;20020;-81
2023/04/28 09:09:19;;;;;;;5.30;1.13;;;18.40;37.30;;;;;;5074113;28;20028;-81
2023/04/28 09:11:51;;;;;;;3.40;1.40;;;18.00;37.80;;;;;;5073813;28;20090;-79
2023/04/28 09:14:17;;;;;;;4.20;1.92;;;18.10;39.50;;;;;;5073980;28;20123;-80
2023/04/28 09:16:43;;;;;;;1.35;0.98;;;18.60;39.20;;;;;;5075296;28;20052;-80
2023/04/28 09:19:09;;;;;;;12.23;3.40;;;18.70;35.60;;;;;;5074876;28;20103;-80
2023/04/28 09:21:50;;;;;;;7.30;3.25;;;18.90;37.20;;;;;;5075174;28;20100;-79
2023/04/28 09:24:29;;;;;;;4.10;1.30;;;19.10;36.30;;;;;;5073592;28;20036;-80
2023/04/28 09:26:56;;;;;;;6.72;2.20;;;19.00;38.50;;;;;;5073745;28;20020;-81
2023/04/28 09:29:22;;;;;;;2.50;1.10;;;18.80;34.30;;;;;;5074287;28;20455;-81
2023/04/28 09:31:48;;;;;;;4.18;1.58;;;18.90;35.50;;;;;;5073459;28;20032;-81
2023/04/28 09:34:14;;;;;;;5.95;2.55;;;19.20;38.50;;;;;;5074738;28;20040;-80
2023/04/28 09:36:40;;;;;;;3.25;1.48;;;19.30;35.50;;;;;;5074883;28;20048;-80
2023/04/28 09:39:06;;;;;;;4.32;1.30;;;19.50;35.20;;;;;;5073191;28;20028;-80
2023/04/28 09:41:40;;;;;;;2.90;0.98;;;19.70;33.50;;;;;;5073252;28;20048;-80
2023/04/28 09:44:14;;;;;;;2.88;1.17;;;19.70;33.50;;;;;;5074762;28;20032;-81
2023/04/28 09:46:40;;;;;;;3.95;1.13;;;19.60;33.50;;;;;;5074651;28;20409;-81
2023/04/28 09:49:07;;;;;;;6.22;1.70;;;19.70;34.10;;;;;;5074533;28;20023;-80
2023/04/28 09:51:34;;;;;;;4.88;2.00;;;19.80;33.50;;;;;;5074905;28;20028;-80
2023/04/28 09:54:03;;;;;;;5.45;2.00;;;20.10;33.00;;;;;;5072805;28;20056;-81
2023/04/28 09:56:31;;;;;;;4.70;1.52;;;20.20;32.80;;;;;;5074391;28;20025;-81
2023/04/28 09:59:01;;;;;;;3.38;1.58;;;20.10;33.00;;;;;;5074012;28;20024;-80
2023/04/28 10:01:31;;;;;;;2.65;1.25;;;20.00;33.50;;;;;;5072924;28;20025;-80
2023/04/28 10:03:59;;;;;;;5.82;1.30;;;20.20;32.10;;;;;;5073083;28;20033;-80
2023/04/28 10:06:27;;;;;;;4.32;1.63;;;20.30;31.80;;;;;;5073968;28;20113;-81
2023/04/28 10:08:57;;;;;;;3.72;1.40;;;20.30;31.70;;;;;;5073256;28;20113;-80
2023/04/28 10:11:24;;;;;;;7.05;1.77;;;20.40;33.00;;;;;;5073028;28;20024;-80
2023/04/28 10:13:52;;;;;;;3.88;1.42;;;20.50;32.90;;;;;;5072515;28;20028;-80
2023/04/28 10:16:18;;;;;;;3.65;1.20;;;20.00;30.50;;;;;;5073674;28;20074;-80
2023/04/28 10:18:44;;;;;;;4.53;1.35;;;20.20;31.20;;;;;;5074347;28;20470;-80
2023/04/28 10:21:13;;;;;;;4.53;1.13;;;20.20;33.10;;;;;;5073399;28;20025;-80
2023/04/28 10:24:17;;;;;;;4.35;1.58;;;20.60;32.80;;;;;;5073755;28;20078;-80
2023/04/28 10:27:03;;;;;;;5.28;1.63;;;19.80;28.70;;;;;;5031589;28;20037;-80
2023/04/28 10:29:31;;;;;;;3.55;1.20;;;20.30;33.70;;;;;;5031614;28;20387;-80
2023/04/28 10:32:16;;;;;;;5.22;1.10;;;20.30;31.20;;;;;;5015397;28;20029;-82
2023/04/28 10:34:42;;;;;;;3.40;1.40;;;20.60;32.00;;;;;;5031133;28;20036;-82
2023/04/28 10:37:07;;;;;;;3.17;1.33;;;20.40;31.10;;;;;;5015140;28;20033;-80
2023/04/28 10:39:34;;;;;;;3.47;1.27;;;20.50;30.70;;;;;;5031526;28;20484;-81
2023/04/28 10:42:00;;;;;;;4.78;1.23;;;20.70;31.70;;;;;;5030949;28;20392;-81
2023/04/28 10:44:29;;;;;;;1.85;1.25;;;20.50;31.50;;;;;;5014887;28;20017;-81
2023/04/28 10:47:10;;;;;;;2.47;1.10;;;20.60;30.20;;;;;;5015137;28;20041;-80
2023/04/28 10:49:57;;;;;;;6.47;1.70;;;20.80;28.90;;;;;;5030996;28;20033;-82
2023/04/28 10:52:32;;;;;;;3.35;1.20;;;21.00;30.80;;;;;;5014706;28;20037;-80
2023/04/28 10:55:29;;;;;;;3.17;1.17;;;21.00;29.90;;;;;;5031046;28;20116;-80
2023/04/28 10:58:19;;;;;;;6.25;1.30;;;21.10;29.10;;;;;;5029280;28;20044;-80
2023/04/28 11:00:48;;;;;;;7.03;2.25;;;21.10;29.50;;;;;;5031334;28;20032;-80
2023/04/28 11:03:48;;;;;;;4.72;1.50;;;21.20;31.40;;;;;;5067280;28;20041;-80
2023/04/28 11:06:24;;;;;;;4.00;1.67;;;21.30;29.40;;;;;;5072346;28;20032;-79
2023/04/28 11:08:50;;;;;;;2.67;1.30;;;;;;;;;;5071886;28;20024;-80
2023/04/28 11:11:18;;;;;;;6.88;2.28;;;21.60;28.80;;;;;;5072250;28;20024;-81
2023/04/28 11:13:47;;;;;;;3.45;1.83;;;21.80;29.20;;;;;;5072311;28;20035;-80
2023/04/28 11:16:24;;;;;;;2.63;1.38;;;21.50;28.40;;;;;;5071893;28;20032;-81
2023/04/28 11:18:51;;;;;;;3.63;1.25;;;21.30;30.40;;;;;;5073301;28;20378;-80
2023/04/28 11:21:18;;;;;;;4.97;1.95;;;21.20;28.30;;;;;;5077612;28;20532;-80
2023/04/28 11:23:44;;;;;;;3.20;1.20;;;21.50;28.90;;;;;;5075786;28;20035;-81
2023/04/28 11:26:11;;;;;;;3.40;1.77;;;;;;;;;;5076046;28;20516;-79
2023/04/28 11:28:49;;;;;;;1.95;1.10;;;21.90;27.90;;;;;;5077251;28;20021;-78
2023/04/28 11:31:22;;;;;;;3.72;1.00;;;22.10;28.30;;;;;;5076993;28;20021;-82
2023/04/28 11:34:01;;;;;;;2.60;1.33;;;21.60;26.70;;;;;;5076857;28;20442;-81
2023/04/28 11:36:31;;;;;;;4.28;1.88;;;21.60;29.10;;;;;;5077464;28;20048;-79
2023/04/28 11:38:58;;;;;;;4.80;1.27;;;21.80;29.50;;;;;;5076843;28;20047;-80
2023/04/28 11:41:25;;;;;;;3.30;0.95;;;21.70;27.20;;;;;;5076468;28;20399;-80
2023/04/28 11:43:51;;;;;;;3.30;1.48;;;21.90;28.00;;;;;;5075508;28;20512;-81
2023/04/28 11:46:21;;;;;;;4.03;1.25;;;22.20;30.00;;;;;;5076978;28;20020;-79
2023/04/28 11:48:48;;;;;;;3.45;1.05;;;22.40;27.50;;;;;;5076843;28;20055;-79
2023/04/28 11:51:29;;;;;;;2.25;1.15;;;22.40;28.40;;;;;;5076537;28;20074;-81
2023/04/28 11:53:55;;;;;;;2.67;1.40;;;22.10;27.90;;;;;;5075474;28;20062;-80
2023/04/28 11:56:21;;;;;;;1.85;1.10;;;21.90;31.10;;;;;;5076802;28;20028;-80
2023/04/28 11:59:03;;;;;;;2.00;1.13;;;21.80;28.10;;;;;;5076284;28;20070;-79
2023/04/28 12:01:30;;;;;;;3.50;1.48;;;21.80;30.20;;;;;;5076780;28;20043;-79
2023/04/28 12:03:56;;;;;;;4.00;1.10;;;22.00;28.70;;;;;;5076604;28;20107;-79
2023/04/28 12:06:22;;;;;;;3.05;1.00;;;21.80;27.50;;;;;;5076292;28;20471;-78
2023/04/28 12:08:48;;;;;;;4.47;1.20;;;21.90;27.80;;;;;;5075259;28;20021;-80
2023/04/28 12:11:16;;;;;;;3.28;1.52;;;22.10;28.90;;;;;;5075111;28;20371;-78
2023/04/28 12:14:01;;;;;;;3.13;1.40;;;22.00;27.50;;;;;;5074846;28;20028;-79
2023/04/28 12:16:42;;;;;;;1.20;0.73;;;22.10;27.20;;;;;;5075146;28;20394;-78
2023/04/28 12:19:09;;;;;;;6.90;1.30;;;22.10;30.20;;;;;;5075881;28;20025;-79
2023/04/28 12:21:36;;;;;;;1.67;0.93;;;22.10;30.20;;;;;;5075014;28;20028;-80
2023/04/28 12:24:20;;;;;;;5.03;1.25;;;22.60;27.70;;;;;;5074842;28;20029;-79
2023/04/28 12:26:47;;;;;;;3.08;1.42;;;;;;;;;;5074670;28;20374;-79
2023/04/28 12:29:38;;;;;;;5.25;1.20;;;22.90;28.00;;;;;;5074729;28;20024;-79
2023/04/28 12:32:05;;;;;;;2.80;1.17;;;22.70;27.90;;;;;;5074196;28;20459;-79
2023/04/28 12:34:32;;;;;;;6.32;1.20;;;22.20;27.90;;;;;;5074507;28;20463;-78
2023/04/28 12:36:59;;;;;;;4.50;2.35;;;22.50;28.00;;;;;;5075489;28;20023;-79
2023/04/28 12:39:25;;;;;;;3.88;1.20;;;22.50;27.60;;;;;;5061652;28;20432;-80
2023/04/28 12:41:53;;;;;;;5.90;1.67;;;22.10;27.70;;;;;;5071937;28;20040;-80
2023/04/28 12:44:21;;;;;;;2.05;1.10;;;22.10;28.00;;;;;;5075173;28;20024;-79
2023/04/28 12:46:47;;;;;;;3.78;1.60;;;21.80;28.10;;;;;;5073813;28;20028;-80